createdAt,value
2018-04-12T00:00:40.002Z,14.2
2018-04-12T00:01:59.828Z,14.2
2018-04-12T00:03:22.235Z,14.2
2018-04-12T00:04:42.057Z,14.2
2018-04-12T00:06:04.411Z,14.4
2018-04-12T00:07:24.265Z,14.5
2018-04-12T00:08:44.128Z,14.6
2018-04-12T00:10:03.949Z,14.5
2018-04-12T00:11:23.840Z,14.6
2018-04-12T00:12:46.238Z,14.5
2018-04-12T00:14:06.063Z,14.4
2018-04-12T00:15:33.558Z,14.5
2018-04-12T00:16:55.920Z,14.5
2018-04-12T00:18:23.361Z,14.4
2018-04-12T00:19:43.212Z,14.4
2018-04-12T00:21:05.569Z,14.2
2018-04-12T00:22:25.403Z,14.5
2018-04-12T00:23:45.233Z,14.5
2018-04-12T00:25:05.065Z,14.6
2018-04-12T00:26:24.895Z,14.6
2018-04-12T00:27:47.258Z,14.5
2018-04-12T00:29:07.122Z,14.6
2018-04-12T00:30:27.004Z,14.5
2018-04-12T00:31:46.832Z,14.5
2018-04-12T00:33:06.652Z,14.5
2018-04-12T00:34:26.522Z,14.5
2018-04-12T00:35:48.872Z,14.6
2018-04-12T00:37:08.740Z,14.5
2018-04-12T00:38:28.593Z,14.4
2018-04-12T00:39:48.470Z,14.5
2018-04-12T00:41:08.343Z,14.6
2018-04-12T00:42:30.736Z,14.4
2018-04-12T00:43:50.560Z,14.4
2018-04-12T00:45:10.424Z,14.4
2018-04-12T00:46:30.262Z,14.4
2018-04-12T00:47:52.635Z,14.4
2018-04-12T00:49:17.538Z,14.5
2018-04-12T00:50:37.413Z,14.4
2018-04-12T00:51:59.789Z,14.3
2018-04-12T00:53:22.165Z,14.4
2018-04-12T00:54:44.540Z,14.5
2018-04-12T00:56:04.374Z,14.6
2018-04-12T00:57:26.722Z,14.3
2018-04-12T00:58:46.552Z,14.3
2018-04-12T01:00:11.433Z,14.4
2018-04-12T01:01:31.274Z,14.3
2018-04-12T01:02:53.643Z,14.4
2018-04-12T01:04:13.549Z,14.3
2018-04-12T01:05:35.932Z,14.3
2018-04-12T01:06:55.801Z,14.2
2018-04-12T01:08:18.225Z,14.4
2018-04-12T01:09:40.578Z,14.5
2018-04-12T01:11:00.448Z,14.3
2018-04-12T01:12:20.312Z,14.2
2018-04-12T01:13:42.699Z,14.2
2018-04-12T01:15:02.526Z,14.1
2018-04-12T01:16:22.406Z,14.2
2018-04-12T01:17:49.882Z,14.3
2018-04-12T01:19:09.753Z,14.2
2018-04-12T01:20:29.594Z,14.2
2018-04-12T01:21:57.084Z,14.3
2018-04-12T01:23:22.008Z,14.3
2018-04-12T01:24:44.414Z,14.3
2018-04-12T01:26:04.284Z,14.2
2018-04-12T01:27:24.111Z,14.2
2018-04-12T01:28:43.959Z,14.3
2018-04-12T01:30:13.898Z,14.3
2018-04-12T01:31:36.245Z,14.3
2018-04-12T01:32:58.598Z,14.2
2018-04-12T01:34:20.951Z,14.1
2018-04-12T01:35:43.329Z,14.1
2018-04-12T01:37:08.236Z,14.3
2018-04-12T01:38:38.252Z,14.2
2018-04-12T01:39:58.152Z,14.2
2018-04-12T01:41:18.007Z,14.3
2018-04-12T01:42:40.355Z,14.1
2018-04-12T01:44:00.185Z,14.1
2018-04-12T01:45:27.685Z,14.2
2018-04-12T01:46:47.527Z,14.2
2018-04-12T01:48:12.421Z,14
2018-04-12T01:49:32.248Z,14
2018-04-12T01:50:52.134Z,14
2018-04-12T01:52:17.052Z,14
2018-04-12T01:53:36.870Z,14.1
2018-04-12T01:55:01.775Z,14.1
2018-04-12T01:56:21.604Z,14.1
2018-04-12T01:57:44.012Z,14
2018-04-12T01:59:06.365Z,14
2018-04-12T02:00:26.191Z,14
2018-04-12T02:01:46.025Z,14.1
2018-04-12T02:03:05.847Z,14
2018-04-12T02:04:25.671Z,14
2018-04-12T02:05:58.182Z,14
2018-04-12T02:07:20.590Z,14.1
2018-04-12T02:08:45.495Z,14.1
2018-04-12T02:10:05.344Z,14.1
2018-04-12T02:11:25.200Z,14
2018-04-12T02:12:45.032Z,13.9
2018-04-12T02:14:12.512Z,13.8
2018-04-12T02:15:34.861Z,14
2018-04-12T02:16:54.743Z,14.1
2018-04-12T02:18:17.098Z,13.9
2018-04-12T02:19:36.925Z,13.7
2018-04-12T02:20:56.823Z,14
2018-04-12T02:22:16.652Z,14.1
2018-04-12T02:23:39.019Z,14.1
2018-04-12T02:25:01.366Z,13.9
2018-04-12T02:26:21.233Z,13.9
2018-04-12T02:27:41.059Z,14
2018-04-12T02:29:00.934Z,13.9
2018-04-12T02:30:23.307Z,13.7
2018-04-12T02:31:43.155Z,13.8
2018-04-12T02:33:03.002Z,13.8
2018-04-12T02:34:22.857Z,13.7
2018-04-12T02:35:42.703Z,14
2018-04-12T02:37:02.607Z,13.8
2018-04-12T02:38:22.464Z,13.8
2018-04-12T02:39:44.816Z,13.8
2018-04-12T02:41:12.231Z,13.9
2018-04-12T02:42:32.052Z,14
2018-04-12T02:43:51.930Z,14
2018-04-12T02:45:16.821Z,14.1
2018-04-12T02:46:49.300Z,14
2018-04-12T02:48:14.219Z,13.8
2018-04-12T02:49:34.043Z,13.9
2018-04-12T02:50:56.435Z,13.9
2018-04-12T02:52:18.801Z,13.9
2018-04-12T02:53:48.758Z,13.9
2018-04-12T02:55:08.582Z,14
2018-04-12T02:56:28.453Z,14
2018-04-12T02:57:53.382Z,14
2018-04-12T02:59:13.239Z,13.9
2018-04-12T03:00:35.637Z,14
2018-04-12T03:01:55.485Z,13.8
2018-04-12T03:03:15.342Z,13.8
2018-04-12T03:04:37.720Z,13.9
2018-04-12T03:05:57.582Z,13.9
2018-04-12T03:07:19.989Z,14.1
2018-04-12T03:08:39.839Z,14
2018-04-12T03:09:59.721Z,14
2018-04-12T03:11:22.113Z,13.8
2018-04-12T03:12:44.471Z,14
2018-04-12T03:14:04.312Z,14
2018-04-12T03:15:24.148Z,14.1
2018-04-12T03:16:44.034Z,14.1
2018-04-12T03:18:08.931Z,14.1
2018-04-12T03:19:28.805Z,13.9
2018-04-12T03:20:51.202Z,14.1
2018-04-12T03:22:11.026Z,14.1
2018-04-12T03:23:35.929Z,14.2
2018-04-12T03:24:55.753Z,14.1
2018-04-12T03:26:15.632Z,14.2
2018-04-12T03:27:35.456Z,14
2018-04-12T03:28:55.301Z,14.1
2018-04-12T03:30:20.182Z,14.2
2018-04-12T03:31:42.611Z,14.3
2018-04-12T03:33:04.967Z,14.2
2018-04-12T03:34:34.918Z,14.2
2018-04-12T03:35:54.788Z,14.2
2018-04-12T03:37:22.250Z,14.1
2018-04-12T03:38:47.220Z,14.2
2018-04-12T03:40:09.571Z,14.3
2018-04-12T03:41:29.445Z,14.2
2018-04-12T03:42:49.266Z,14.2
2018-04-12T03:44:09.105Z,14.1
2018-04-12T03:45:31.468Z,14.1
2018-04-12T03:46:53.827Z,14.2
2018-04-12T03:48:13.657Z,14.3
2018-04-12T03:49:33.529Z,14.3
2018-04-12T03:50:53.373Z,14.4
2018-04-12T03:52:13.245Z,14.4
2018-04-12T03:53:33.103Z,14.4
2018-04-12T03:54:52.939Z,14.4
2018-04-12T03:56:15.281Z,14.4
2018-04-12T03:57:35.102Z,14.3
2018-04-12T03:58:57.480Z,14.3
2018-04-12T04:00:17.331Z,14.3
2018-04-12T04:01:37.207Z,14.3
2018-04-12T04:02:59.560Z,14.4
2018-04-12T04:04:19.400Z,14.4
2018-04-12T04:05:39.223Z,14.4
2018-04-12T04:06:59.044Z,14.4
2018-04-12T04:08:21.422Z,14.4
2018-04-12T04:09:43.815Z,14.3
2018-04-12T04:11:03.648Z,14.2
2018-04-12T04:12:23.476Z,14
2018-04-12T04:13:43.305Z,14
2018-04-12T04:15:03.129Z,14.1
2018-04-12T04:16:25.496Z,14.1
2018-04-12T04:17:47.852Z,14.1
2018-04-12T04:19:10.204Z,14.1
2018-04-12T04:20:30.035Z,13.9
2018-04-12T04:21:52.407Z,14.1
2018-04-12T04:23:12.254Z,14.2
2018-04-12T04:24:32.106Z,14.3
2018-04-12T04:25:54.496Z,14.3
2018-04-12T04:27:14.358Z,14.3
2018-04-12T04:28:34.181Z,14.4
2018-04-12T04:29:54.001Z,14.6
2018-04-12T04:31:13.829Z,14.7
2018-04-12T04:32:33.663Z,14.5
2018-04-12T04:33:53.533Z,14.4
2018-04-12T04:35:15.899Z,14.4
2018-04-12T04:36:35.723Z,14.3
2018-04-12T04:37:55.607Z,14.2
2018-04-12T04:39:33.179Z,14.2
2018-04-12T04:40:53.007Z,14.3
2018-04-12T04:42:15.370Z,14.3
2018-04-12T04:43:35.269Z,14.3
2018-04-12T04:44:57.655Z,14.2
2018-04-12T04:46:20.010Z,14.3
2018-04-12T04:47:42.406Z,14.2
2018-04-12T04:49:04.817Z,14.4
2018-04-12T04:50:32.278Z,14.3
2018-04-12T04:51:54.629Z,14.4
2018-04-12T04:53:17.036Z,14.4
2018-04-12T04:54:36.920Z,14.4
2018-04-12T04:55:59.277Z,14.3
2018-04-12T04:57:19.101Z,14.4
2018-04-12T04:58:38.926Z,14.5
2018-04-12T05:00:01.291Z,14.3
2018-04-12T05:01:21.121Z,14.3
2018-04-12T05:02:40.955Z,14.5
2018-04-12T05:04:03.326Z,14.5
2018-04-12T05:05:23.176Z,14.5
2018-04-12T05:06:45.525Z,14.4
2018-04-12T05:08:07.886Z,14.5
2018-04-12T05:09:27.722Z,14.4
2018-04-12T05:10:55.186Z,14.3
2018-04-12T05:12:15.007Z,14.5
2018-04-12T05:13:37.385Z,14.6
2018-04-12T05:14:57.261Z,14.7
2018-04-12T05:16:17.132Z,14.6
2018-04-12T05:17:39.542Z,14.5
2018-04-12T05:18:59.415Z,14.6
2018-04-12T05:20:21.835Z,14.4
2018-04-12T05:21:49.245Z,14.5
2018-04-12T05:23:09.075Z,14.6
2018-04-12T05:24:28.953Z,14.3
2018-04-12T05:25:48.778Z,14.2
2018-04-12T05:27:11.152Z,14.3
2018-04-12T05:28:33.560Z,14.5
2018-04-12T05:29:58.443Z,14.5
2018-04-12T05:31:18.311Z,14.5
2018-04-12T05:32:38.136Z,14.6
2018-04-12T05:34:00.487Z,14.6
2018-04-12T05:35:20.330Z,14.6
2018-04-12T05:36:42.712Z,14.5
2018-04-12T05:38:05.117Z,14.4
2018-04-12T05:39:30.036Z,14.6
2018-04-12T05:40:49.859Z,14.6
2018-04-12T05:42:09.711Z,14.6
2018-04-12T05:43:29.555Z,14.6
2018-04-12T05:44:51.932Z,14.6
2018-04-12T05:46:11.831Z,14.6
2018-04-12T05:47:36.738Z,14.5
2018-04-12T05:49:01.703Z,14.4
2018-04-12T05:50:21.541Z,14.6
2018-04-12T05:51:48.963Z,14.7
2018-04-12T05:53:11.310Z,14.7
2018-04-12T05:54:36.258Z,14.6
2018-04-12T05:55:58.664Z,14.6
2018-04-12T05:57:18.540Z,14.6
2018-04-12T05:58:38.362Z,14.6
2018-04-12T06:00:03.254Z,14.6
2018-04-12T06:01:30.706Z,14.6
2018-04-12T06:02:50.534Z,14.5
2018-04-12T06:04:28.076Z,14.6
2018-04-12T06:05:47.899Z,14.6
2018-04-12T06:07:10.292Z,14.7
2018-04-12T06:08:32.644Z,14.7
2018-04-12T06:09:55.029Z,14.8
2018-04-12T06:11:14.853Z,14.8
2018-04-12T06:12:34.674Z,14.8
2018-04-12T06:13:57.061Z,14.8
2018-04-12T06:15:16.916Z,14.9
2018-04-12T06:16:39.339Z,14.8
2018-04-12T06:18:01.769Z,14.8
2018-04-12T06:19:21.649Z,14.7
2018-04-12T06:20:44.002Z,14.7
2018-04-12T06:22:06.371Z,14.8
2018-04-12T06:23:26.221Z,14.8
2018-04-12T06:24:46.105Z,14.8
2018-04-12T06:26:13.570Z,14.9
2018-04-12T06:27:38.470Z,14.9
2018-04-12T06:29:03.355Z,14.9
2018-04-12T06:30:25.701Z,14.9
2018-04-12T06:31:45.570Z,14.8
2018-04-12T06:33:18.066Z,14.9
2018-04-12T06:34:37.920Z,14.9
2018-04-12T06:35:57.745Z,15
2018-04-12T06:37:25.191Z,15
2018-04-12T06:38:47.553Z,14.9
2018-04-12T06:40:09.916Z,15
2018-04-12T06:41:29.739Z,15
2018-04-12T06:42:52.134Z,15.1
2018-04-12T06:44:14.560Z,15
2018-04-12T06:45:34.390Z,14.9
2018-04-12T06:46:54.219Z,15
2018-04-12T06:48:14.097Z,15
2018-04-12T06:49:36.538Z,15
2018-04-12T06:50:58.942Z,15
2018-04-12T06:52:21.370Z,14.9
2018-04-12T06:53:41.258Z,15
2018-04-12T06:55:01.132Z,15
2018-04-12T06:56:20.976Z,15.1
2018-04-12T06:57:40.855Z,15.1
2018-04-12T06:59:03.244Z,15.1
2018-04-12T07:00:23.073Z,15.1
2018-04-12T07:01:47.971Z,15.1
2018-04-12T07:03:07.840Z,15
2018-04-12T07:04:27.656Z,15.1
2018-04-12T07:05:50.032Z,15.1
2018-04-12T07:07:09.876Z,15.2
2018-04-12T07:08:32.228Z,15.1
2018-04-12T07:10:02.182Z,15.1
2018-04-12T07:11:22.033Z,15.1
2018-04-12T07:12:44.393Z,15
2018-04-12T07:14:06.787Z,15.1
2018-04-12T07:15:26.645Z,15
2018-04-12T07:16:49.049Z,15.1
2018-04-12T07:18:11.452Z,15.1
2018-04-12T07:19:33.854Z,15.1
2018-04-12T07:20:56.282Z,15.2
2018-04-12T07:22:16.179Z,15.2
2018-04-12T07:23:35.999Z,15.2
2018-04-12T07:24:58.374Z,15.2
2018-04-12T07:26:23.303Z,15.2
2018-04-12T07:27:43.128Z,15.2
2018-04-12T07:29:10.537Z,15.1
2018-04-12T07:30:35.441Z,15.2
2018-04-12T07:32:02.895Z,15.3
2018-04-12T07:33:22.729Z,15.3
2018-04-12T07:34:42.608Z,15.3
2018-04-12T07:36:02.438Z,15.3
2018-04-12T07:37:24.837Z,15.3
2018-04-12T07:38:54.788Z,15.4
2018-04-12T07:40:32.343Z,15.4
2018-04-12T07:41:54.700Z,15.4
2018-04-12T07:43:14.518Z,15.5
2018-04-12T07:44:34.345Z,15.5
2018-04-12T07:45:56.737Z,15.4
2018-04-12T07:47:16.584Z,15.5
2018-04-12T07:48:46.559Z,15.5
2018-04-12T07:50:08.971Z,15.5
2018-04-12T07:51:28.795Z,15.5
2018-04-12T07:52:48.639Z,15.6
2018-04-12T07:54:16.134Z,15.6
2018-04-12T07:55:35.983Z,15.6
2018-04-12T07:56:55.832Z,15.6
2018-04-12T07:58:15.685Z,15.6
2018-04-12T07:59:53.261Z,15.6
2018-04-12T08:01:18.144Z,15.6
2018-04-12T08:02:43.029Z,15.6
2018-04-12T08:04:02.856Z,15.6
2018-04-12T08:05:22.684Z,15.6
2018-04-12T08:06:45.088Z,15.6
2018-04-12T08:08:17.609Z,15.7
2018-04-12T08:09:39.959Z,15.8
2018-04-12T08:11:02.319Z,15.8
2018-04-12T08:12:27.218Z,15.8
2018-04-12T08:13:47.087Z,15.8
2018-04-12T08:15:06.918Z,15.9
2018-04-12T08:16:26.776Z,15.9
2018-04-12T08:17:46.627Z,15.9
2018-04-12T08:19:06.532Z,16
2018-04-12T08:20:28.925Z,16
2018-04-12T08:21:51.325Z,16
2018-04-12T08:23:11.186Z,16.1
2018-04-12T08:24:43.664Z,16.1
2018-04-12T08:26:03.492Z,16.1
2018-04-12T08:27:25.896Z,16
2018-04-12T08:28:50.871Z,16.1
2018-04-12T08:30:10.759Z,16.1
2018-04-12T08:31:30.591Z,16.1
2018-04-12T08:32:50.471Z,16.1
2018-04-12T08:34:10.303Z,16.1
2018-04-12T08:35:32.660Z,16.2
2018-04-12T08:36:52.536Z,16.2
2018-04-12T08:38:17.489Z,16.2
2018-04-12T08:39:37.317Z,16.1
2018-04-12T08:40:59.669Z,16.1
2018-04-12T08:42:19.489Z,16.1
2018-04-12T08:43:41.851Z,16.2
2018-04-12T08:45:01.696Z,16.2
2018-04-12T08:46:29.128Z,16.3
2018-04-12T08:47:51.514Z,16.2
2018-04-12T08:49:11.407Z,16.2
2018-04-12T08:50:31.293Z,16.2
2018-04-12T08:51:51.143Z,16.2
2018-04-12T08:53:11.052Z,16.2
2018-04-12T08:54:30.942Z,16.2
2018-04-12T08:55:53.336Z,16.2
2018-04-12T08:57:18.244Z,16.2
2018-04-12T08:58:38.088Z,16.2
2018-04-12T09:00:00.452Z,16.2
2018-04-12T09:01:20.365Z,16.2
2018-04-12T09:02:40.196Z,16.2
2018-04-12T09:04:00.072Z,16.2
2018-04-12T09:05:19.950Z,16.1
2018-04-12T09:06:42.322Z,16.1
2018-04-12T09:08:04.673Z,16.1
2018-04-12T09:09:24.500Z,16.2
2018-04-12T09:10:44.348Z,16.3
2018-04-12T09:12:04.178Z,16.3
2018-04-12T09:13:24.005Z,16.3
2018-04-12T09:14:43.852Z,16.3
2018-04-12T09:16:03.683Z,16.2
2018-04-12T09:17:26.068Z,16.2
2018-04-12T09:18:50.978Z,16.2
2018-04-12T09:20:10.845Z,16.2
2018-04-12T09:21:30.746Z,16.3
2018-04-12T09:22:50.591Z,16.3
2018-04-12T09:24:10.501Z,16.3
2018-04-12T09:25:30.392Z,16.2
2018-04-12T09:26:50.283Z,16.3
2018-04-12T09:28:10.115Z,16.3
2018-04-12T09:29:32.477Z,16.3
2018-04-12T09:30:52.307Z,16.3
2018-04-12T09:32:17.213Z,16.3
2018-04-12T09:33:37.028Z,16.3
2018-04-12T09:35:06.986Z,16.3
2018-04-12T09:36:29.365Z,16.3
2018-04-12T09:37:49.192Z,16.4
2018-04-12T09:39:09.064Z,16.4
2018-04-12T09:40:28.884Z,16.4
2018-04-12T09:41:51.264Z,16.3
2018-04-12T09:43:11.110Z,16.3
2018-04-12T09:44:30.998Z,16.3
2018-04-12T09:45:50.901Z,16.3
2018-04-12T09:47:10.751Z,16.3
2018-04-12T09:48:30.626Z,16.2
2018-04-12T09:49:55.535Z,16.2
2018-04-12T09:51:15.354Z,16.2
2018-04-12T09:52:35.212Z,16.2
2018-04-12T09:54:02.627Z,16.1
2018-04-12T09:55:22.532Z,16.1
2018-04-12T09:56:49.944Z,16
2018-04-12T09:58:17.427Z,16
2018-04-12T09:59:37.259Z,16
2018-04-12T10:00:59.659Z,16.1
2018-04-12T10:02:22.022Z,16.1
2018-04-12T10:03:41.848Z,16.1
2018-04-12T10:05:01.708Z,16.1
2018-04-12T10:06:21.535Z,16.1
2018-04-12T10:07:43.891Z,16.1
2018-04-12T10:09:03.760Z,16.2
2018-04-12T10:10:28.691Z,16.2
2018-04-12T10:11:48.554Z,16.2
2018-04-12T10:13:08.389Z,16.4
2018-04-12T10:14:33.304Z,16.3
2018-04-12T10:16:00.741Z,16.3
2018-04-12T10:17:25.701Z,16.2
2018-04-12T10:18:45.566Z,16.4
2018-04-12T10:20:05.410Z,16.4
2018-04-12T10:21:25.281Z,16.4
2018-04-12T10:23:00.339Z,16.4
2018-04-12T10:24:20.163Z,16.3
2018-04-12T10:25:40.073Z,16.3
2018-04-12T10:26:59.897Z,16.4
2018-04-12T10:28:22.269Z,15.7
2018-04-12T10:29:42.096Z,15.8
2018-04-12T10:31:04.496Z,15.7
2018-04-12T10:32:26.844Z,15.7
2018-04-12T10:33:46.679Z,15.7
2018-04-12T10:35:06.511Z,15.8
2018-04-12T10:36:28.917Z,15.8
2018-04-12T10:37:48.748Z,15.8
2018-04-12T10:39:18.689Z,15.7
2018-04-12T10:40:41.122Z,15.8
2018-04-12T10:42:08.535Z,15.8
2018-04-12T10:43:41.043Z,15.8
2018-04-12T10:45:03.448Z,15.8
2018-04-12T10:46:25.824Z,15.8
2018-04-12T10:47:48.176Z,16.3
2018-04-12T10:49:10.560Z,16.4
2018-04-12T10:50:32.914Z,16.4
2018-04-12T10:52:10.480Z,16.4
2018-04-12T10:53:32.835Z,16.4
2018-04-12T10:54:55.203Z,16.4
2018-04-12T10:56:15.031Z,16.4
2018-04-12T10:57:45.044Z,16.3
2018-04-12T10:59:04.949Z,15.7
2018-04-12T11:00:24.829Z,15.8
2018-04-12T11:01:54.790Z,15.8
2018-04-12T11:03:14.669Z,15.8
2018-04-12T11:04:52.251Z,15.8
2018-04-12T11:06:14.652Z,15.8
2018-04-12T11:07:34.478Z,15.8
2018-04-12T11:08:56.849Z,15.8
2018-04-12T11:10:19.209Z,15.9
2018-04-12T11:11:41.562Z,16
2018-04-12T11:13:01.443Z,16
2018-04-12T11:14:21.316Z,16
2018-04-12T11:15:46.231Z,16
2018-04-12T11:17:08.581Z,16
2018-04-12T11:18:28.477Z,16.1
2018-04-12T11:19:48.367Z,16.1
2018-04-12T11:21:08.288Z,16.1
2018-04-12T11:22:30.746Z,16.1
2018-04-12T11:24:00.754Z,16.2
2018-04-12T11:25:28.229Z,16.2
2018-04-12T11:26:48.164Z,16.2
2018-04-12T11:28:07.988Z,16.3
2018-04-12T11:29:30.409Z,16.3
2018-04-12T11:30:57.820Z,16.3
2018-04-12T11:32:22.751Z,16.4
2018-04-12T11:33:42.594Z,16.4
2018-04-12T11:35:02.412Z,16.5
2018-04-12T11:36:22.261Z,16.5
2018-04-12T11:37:42.080Z,16.5
2018-04-12T11:39:01.959Z,16.5
2018-04-12T11:40:21.785Z,16.5
2018-04-12T11:41:41.709Z,16.5
2018-04-12T11:43:01.595Z,16.5
2018-04-12T11:44:23.970Z,16.6
2018-04-12T11:45:46.380Z,16.6
2018-04-12T11:47:06.214Z,16.7
2018-04-12T11:48:31.090Z,16.7
2018-04-12T11:49:51.025Z,16.7
2018-04-12T11:51:13.423Z,16.7
2018-04-12T11:52:38.305Z,16.7
2018-04-12T11:53:58.124Z,16.7
2018-04-12T11:55:17.959Z,16.8
2018-04-12T11:56:40.366Z,16.8
2018-04-12T11:58:00.416Z,16.8
2018-04-12T11:59:23.897Z,16.9
2018-04-12T12:00:43.727Z,16.9
2018-04-12T12:02:08.608Z,16.9
2018-04-12T12:03:31.012Z,16.9
2018-04-12T12:04:53.425Z,17
2018-04-12T12:06:13.253Z,17
2018-04-12T12:07:33.071Z,17
2018-04-12T12:08:55.452Z,17.1
2018-04-12T12:10:15.351Z,17.2
2018-04-12T12:11:37.702Z,17.2
2018-04-12T12:13:00.138Z,17.3
2018-04-12T12:14:19.988Z,17.3
2018-04-12T12:15:42.357Z,17.3
2018-04-12T12:17:02.191Z,17.3
2018-04-12T12:18:29.618Z,17.3
2018-04-12T12:19:49.477Z,17.4
2018-04-12T12:21:09.325Z,17.6
2018-04-12T12:22:31.728Z,17.6
2018-04-12T12:23:51.639Z,17.7
2018-04-12T12:25:19.164Z,17.9
2018-04-12T12:26:39.051Z,18
2018-04-12T12:28:01.411Z,18.1
2018-04-12T12:29:23.793Z,18.3
2018-04-12T12:30:48.732Z,18.3
2018-04-12T12:32:08.553Z,18.3
2018-04-12T12:33:33.451Z,18.3
2018-04-12T12:34:53.302Z,18.4
2018-04-12T12:36:18.192Z,18.4
2018-04-12T12:37:43.095Z,18.4
2018-04-12T12:39:05.488Z,18.3
2018-04-12T12:40:25.343Z,18.3
2018-04-12T12:41:45.245Z,18.3
2018-04-12T12:43:15.232Z,18.4
2018-04-12T12:44:35.087Z,18.5
2018-04-12T12:45:54.954Z,18.5
2018-04-12T12:47:17.308Z,18.5
2018-04-12T12:48:37.127Z,18.5
2018-04-12T12:49:59.482Z,19.2
2018-04-12T12:51:19.303Z,19.2
2018-04-12T12:52:44.205Z,19.2
2018-04-12T12:54:04.084Z,19.3
2018-04-12T12:55:23.922Z,19.4
2018-04-12T12:56:43.790Z,19.6
2018-04-12T12:58:03.621Z,19.7
2018-04-12T12:59:23.491Z,19.7
2018-04-12T13:00:43.368Z,19.7
2018-04-12T13:02:05.722Z,19.7
2018-04-12T13:03:25.576Z,19.7
2018-04-12T13:04:47.957Z,19.7
2018-04-12T13:06:07.787Z,19.7
2018-04-12T13:07:30.207Z,19.7
2018-04-12T13:08:55.114Z,19.7
2018-04-12T13:10:15.010Z,19.7
2018-04-12T13:11:44.988Z,19.7
2018-04-12T13:13:04.849Z,19.8
2018-04-12T13:14:24.691Z,19.8
2018-04-12T13:15:44.584Z,19.9
2018-04-12T13:17:04.455Z,19.9
2018-04-12T13:18:24.355Z,19.9
2018-04-12T13:19:49.241Z,19.9
2018-04-12T13:21:14.134Z,20
2018-04-12T13:22:36.504Z,20.1
2018-04-12T13:23:58.866Z,20.1
2018-04-12T13:25:21.226Z,20.2
2018-04-12T13:26:46.147Z,20.3
2018-04-12T13:28:08.524Z,20.4
2018-04-12T13:29:28.399Z,20.4
2018-04-12T13:30:48.229Z,20.4
2018-04-12T13:32:18.233Z,20.3
2018-04-12T13:33:43.120Z,20.4
2018-04-12T13:35:02.956Z,20.4
2018-04-12T13:36:22.784Z,20.3
2018-04-12T13:37:45.161Z,20.4
2018-04-12T13:39:07.571Z,20.4
2018-04-12T13:40:27.450Z,20.5
2018-04-12T13:41:52.342Z,20.5
2018-04-12T13:43:12.172Z,20.6
2018-04-12T13:44:34.603Z,20.7
2018-04-12T13:45:56.989Z,20.7
2018-04-12T13:47:26.966Z,20.7
2018-04-12T13:48:46.788Z,20.7
2018-04-12T13:50:19.273Z,20.7
2018-04-12T13:51:54.364Z,20.6
2018-04-12T13:53:19.282Z,20.6
2018-04-12T13:54:44.215Z,20.6
2018-04-12T13:56:11.629Z,20.6
2018-04-12T13:57:31.457Z,20.6
2018-04-12T13:59:01.444Z,20.6
2018-04-12T14:00:21.270Z,20.6
2018-04-12T14:01:41.123Z,20.6
2018-04-12T14:03:00.994Z,20.6
2018-04-12T14:04:20.826Z,20.6
2018-04-12T14:05:40.669Z,20.5
2018-04-12T14:07:00.557Z,20.5
2018-04-12T14:08:20.439Z,20.6
2018-04-12T14:09:40.294Z,20.6
2018-04-12T14:11:10.283Z,20.6
2018-04-12T14:12:37.731Z,20.5
2018-04-12T14:13:57.599Z,20.5
2018-04-12T14:15:17.453Z,20.6
2018-04-12T14:16:39.840Z,20.6
2018-04-12T14:17:59.699Z,20.7
2018-04-12T14:19:19.594Z,20.6
2018-04-12T14:20:39.476Z,20.6
2018-04-12T14:21:59.313Z,20.6
2018-04-12T14:23:21.676Z,20.6
2018-04-12T14:24:46.567Z,20.6
2018-04-12T14:26:06.389Z,20.7
2018-04-12T14:27:26.206Z,20.7
2018-04-12T14:28:48.613Z,20.6
2018-04-12T14:30:08.434Z,20.6
2018-04-12T14:31:33.325Z,20.6
2018-04-12T14:32:55.697Z,20.6
2018-04-12T14:34:20.592Z,20.6
2018-04-12T14:35:42.979Z,20.6
2018-04-12T14:37:02.832Z,20.6
2018-04-12T14:38:27.715Z,20.6
2018-04-12T14:39:47.547Z,20.6
2018-04-12T14:41:09.955Z,20.6
2018-04-12T14:42:29.830Z,20.6
2018-04-12T14:43:49.679Z,20.6
2018-04-12T14:45:12.045Z,20.6
2018-04-12T14:46:31.937Z,20.6
2018-04-12T14:47:51.753Z,20.6
2018-04-12T14:49:14.158Z,20.6
2018-04-12T14:50:51.733Z,20.6
2018-04-12T14:52:11.611Z,20.6
2018-04-12T14:53:31.448Z,20.6
2018-04-12T14:54:51.322Z,20.6
2018-04-12T14:56:13.694Z,20.6
2018-04-12T14:57:33.543Z,20.6
2018-04-12T14:59:03.485Z,20.5
2018-04-12T15:00:28.367Z,20.5
2018-04-12T15:02:08.504Z,20.5
2018-04-12T15:03:30.895Z,20.5
2018-04-12T15:04:50.722Z,20.5
2018-04-12T15:06:10.558Z,20.5
2018-04-12T15:07:35.438Z,20.4
2018-04-12T15:08:55.271Z,20.4
2018-04-12T15:10:15.114Z,20.3
2018-04-12T15:11:37.465Z,20.3
2018-04-12T15:13:02.378Z,20.3
2018-04-12T15:14:24.773Z,20.3
2018-04-12T15:15:57.240Z,20.2
2018-04-12T15:17:22.140Z,20.2
2018-04-12T15:18:41.966Z,20.2
2018-04-12T15:20:11.933Z,20.2
2018-04-12T15:21:31.757Z,20.2
2018-04-12T15:22:51.581Z,20.2
2018-04-12T15:24:21.537Z,20.2
2018-04-12T15:25:41.386Z,20.2
2018-04-12T15:27:03.766Z,20.2
2018-04-12T15:28:23.624Z,20.2
2018-04-12T15:29:48.575Z,19.9
2018-04-12T15:31:08.416Z,19.9
2018-04-12T15:32:28.236Z,19.9
2018-04-12T15:33:55.674Z,19.9
2018-04-12T15:35:15.552Z,19.8
2018-04-12T15:36:40.451Z,19.9
2018-04-12T15:38:00.279Z,19.8
2018-04-12T15:39:22.658Z,19.9
2018-04-12T15:40:45.019Z,19.9
2018-04-12T15:42:04.870Z,19.9
2018-04-12T15:43:24.733Z,19.9
2018-04-12T15:44:47.086Z,19.9
2018-04-12T15:46:06.912Z,19.9
2018-04-12T15:47:29.389Z,19.9
2018-04-12T15:48:51.787Z,19.9
2018-04-12T15:50:11.620Z,19.7
2018-04-12T15:51:31.487Z,19.7
2018-04-12T15:52:51.311Z,19.7
2018-04-12T15:54:11.137Z,19.7
2018-04-12T15:55:30.984Z,19.8
2018-04-12T15:57:00.945Z,19.9
2018-04-12T15:58:20.806Z,19.9
2018-04-12T15:59:40.671Z,19.8
2018-04-12T16:01:03.050Z,19.6
2018-04-12T16:02:22.927Z,19.5
2018-04-12T16:03:42.801Z,19.5
2018-04-12T16:05:10.205Z,19.5
2018-04-12T16:06:30.027Z,19.4
2018-04-12T16:07:49.874Z,19.4
2018-04-12T16:09:09.725Z,19.4
2018-04-12T16:10:29.582Z,19.4
2018-04-12T16:11:51.935Z,19.4
2018-04-12T16:13:14.308Z,19.4
2018-04-12T16:14:36.656Z,19.4
2018-04-12T16:15:56.538Z,19.4
2018-04-12T16:17:16.359Z,19.5
2018-04-12T16:18:36.191Z,19.5
2018-04-12T16:20:01.118Z,19.5
2018-04-12T16:21:31.064Z,19.5
2018-04-12T16:22:50.890Z,19.4
2018-04-12T16:24:15.834Z,19.4
2018-04-12T16:25:40.716Z,19.4
2018-04-12T16:27:03.091Z,19.4
2018-04-12T16:28:22.918Z,19.4
2018-04-12T16:29:42.753Z,19.4
2018-04-12T16:31:02.583Z,19.3
2018-04-12T16:32:22.405Z,19.4
2018-04-12T16:33:42.227Z,19.3
2018-04-12T16:35:04.607Z,19.3
2018-04-12T16:36:29.592Z,19.3
2018-04-12T16:37:49.480Z,19.3
2018-04-12T16:39:09.331Z,19.2
2018-04-12T16:40:31.706Z,19.3
2018-04-12T16:41:54.088Z,19.2
2018-04-12T16:43:13.945Z,19.2
2018-04-12T16:44:36.342Z,19.2
2018-04-12T16:45:56.171Z,19.2
2018-04-12T16:47:18.533Z,19
2018-04-12T16:48:43.493Z,18.9
2018-04-12T16:50:08.435Z,18.9
2018-04-12T16:51:28.262Z,18.9
2018-04-12T16:52:48.088Z,18.9
2018-04-12T16:54:07.916Z,18.9
2018-04-12T16:55:32.805Z,18.8
2018-04-12T16:56:52.625Z,18.8
2018-04-12T16:58:12.487Z,18.7
2018-04-12T16:59:34.847Z,18.8
2018-04-12T17:00:59.737Z,18.7
2018-04-12T17:02:29.708Z,18.7
2018-04-12T17:03:52.091Z,18.6
2018-04-12T17:05:14.480Z,18.6
2018-04-12T17:06:34.337Z,18.6
2018-04-12T17:07:54.189Z,18.7
2018-04-12T17:09:14.044Z,18.7
2018-04-12T17:10:33.952Z,18.7
2018-04-12T17:11:53.809Z,18.6
2018-04-12T17:13:13.716Z,18.7
2018-04-12T17:14:33.555Z,18.6
2018-04-12T17:15:53.398Z,18.6
2018-04-12T17:17:20.852Z,18.5
2018-04-12T17:18:40.682Z,18.5
2018-04-12T17:20:00.501Z,18.5
2018-04-12T17:21:20.326Z,18.5
2018-04-12T17:22:50.302Z,18.5
2018-04-12T17:24:12.716Z,18.5
2018-04-12T17:25:32.540Z,18.4
2018-04-12T17:26:52.387Z,18.4
2018-04-12T17:28:12.246Z,18.4
2018-04-12T17:29:37.132Z,18.3
2018-04-12T17:30:56.956Z,18.3
2018-04-12T17:32:16.785Z,18.3
2018-04-12T17:33:36.617Z,18.3
2018-04-12T17:34:56.510Z,18.3
2018-04-12T17:36:18.891Z,18.2
2018-04-12T17:37:38.769Z,18.2
2018-04-12T17:38:58.659Z,18.2
2018-04-12T17:40:18.500Z,18.2
2018-04-12T17:41:38.372Z,18.2
2018-04-12T17:43:03.334Z,18.1
2018-04-12T17:44:25.750Z,18
2018-04-12T17:45:45.613Z,18
2018-04-12T17:47:13.066Z,18
2018-04-12T17:48:35.473Z,18
2018-04-12T17:49:55.304Z,17.9
2018-04-12T17:51:15.163Z,17.9
2018-04-12T17:52:34.986Z,17.9
2018-04-12T17:53:57.336Z,17.9
2018-04-12T17:55:19.743Z,17.9
2018-04-12T17:56:42.095Z,17.8
2018-04-12T17:58:04.453Z,17.8
2018-04-12T17:59:24.326Z,17.8
2018-04-12T18:00:51.758Z,17.8
2018-04-12T18:02:11.636Z,17.8
2018-04-12T18:03:34.040Z,17.7
2018-04-12T18:04:53.930Z,17.7
2018-04-12T18:06:16.283Z,17.7
2018-04-12T18:07:36.117Z,17.7
2018-04-12T18:08:55.951Z,17.7
2018-04-12T18:10:15.825Z,17.7
2018-04-12T18:11:40.769Z,17.6
2018-04-12T18:13:00.600Z,17.6
2018-04-12T18:14:20.484Z,17.6
2018-04-12T18:15:42.862Z,17.5
2018-04-12T18:17:05.215Z,17.5